Αρχική σελίδα
METAR-TAF:

METAR-TAF

Αεροδρόμια :

Διεθνές Αεροδρόμιο Αρλάντα

Στοκχόλμη-Αρλάντα, Σουηδία

γεωγραφικό πλάτος: 59-39N, γεωγραφικό μήκος: 017-57E, υψόμετρο: 38 μ

Παρών καιρός

Η αναφορά έγινε 13 λεπτά πριν, στις 19:50 UTC
Άνεμος 13 kt από Δ
Θερμοκρασία 3°C
Υγρασία 93%
Πίεση 1018 hPa
Ορατότητα 10 χλμ και άνω
Δεν υπάρχουν νέφη με βάση κάτω από τα 1500 μ. και δεν υπάρχουν νέφη σωρειτομελανίτες.

METAR: ESSA 151950Z 27013KT CAVOK 03/02 Q1018 R01L/19//95 R08/19//95 R01R/19//95 NOSIG

Χρόνος: 21:03 (20:03 UTC)

Πρόγνωση Καιρού

Η αναφορά έγινε 33 λεπτά πριν, στις 19:30 UTC
Η πρόγνωση ισχύει από τις 15 στις 19 UTC έως τις 16 στις 18 UTC
Άνεμος 12 kt από Δ
Ορατότητα 10 χλμ και άνω
Δεν υπάρχουν νέφη με βάση κάτω από τα 1500 μ. και δεν υπάρχουν νέφη σωρειτομελανίτες.

TAF: ESSA 151930Z 1519/1618 26012KT CAVOK

Μετεωρολογικές αναφορές και προγνώσεις για περισσότερα από 4000 αεροδρόμια (δελτία METAR και TAF).

Οι διαθέσιμοι σταθμοί απεικονίζονται στο χάρτη με κίτρινες και κόκκινες κουκκίδες.

Μετακινήστε το ποντίκι πάνω από τις κουκκίδες για να δείτε το όνομα του σταθμού.

Στη συνέχεια, κάντε κλικ για να δείτε τις μετεωρολογικές αναφορές και τις προγνώσεις καιρού.

Για να αλλάξετε το χάρτη: κάντε κλικ στα πράσινα κουμπιά με τον μαύρο σταυρό για να ζουμάρετε, στο πράσινο κουμπί με την παύλα για να αφαιρέσετε το ζουμ ή στα πράσινα βέλη για να αντιπαραβάλλετε χάρτες.


METAR-TAF: